• Join FlightAware (Why Join?)
  • Login
  • US Flag 
09:49AM EDT


 

Airport Tracker/Info


-or-


 

Live Flight TrackerFlight Track Log ✈ UAL109 ✈ 30-Aug-2014 ✈ EGPH / EDI - KEWR

Flight Track Log - Related Links

Times and Time Zones

All times are in EDT time to prevent confusion due to time zone crossing. See the UAL109 flight status page for this flight to view local times or setup timezone preferences in your user account.

Time Position Orientation Groundspeed Altitude Reporting Facility
EDT Latitude Longitude Course Direction KTS MPH feet Rate Location/Type
07:07AM 55.9441 -3.3812 239° Southwest 168 193 300  Level FlightAware ADS-B (EGPH / EDI)
07:08AM 55.9381 -3.3994 241° Southwest 165 190 1,000 3,360 Climbing FlightAware ADS-B (EGPH / EDI)
07:08AM 55.9326 -3.4162 238° Southwest 157 181 2,000 3,360 Climbing FlightAware ADS-B (EGPH / EDI)
07:08AM 55.9270 -3.4324 238° Southwest 155 178 2,700 2,160 Climbing FlightAware ADS-B (EGPH / EDI)
07:08AM 55.9213 -3.4483 239° Southwest 159 183 3,100 1,560 Climbing FlightAware ADS-B (EGPH / EDI)
07:09AM 55.9166 -3.4617 239° Southwest 166 191 3,500 1,200 Climbing FlightAware ADS-B (EGPH / EDI)
07:09AM 55.9022 -3.5043 244° Southwest 200 230 4,000 1,200 Climbing FlightAware ADS-B (EGPH / EDI)
07:10AM 55.8984 -3.5446 263° West 226 260 4,600 1,920 Climbing FlightAware ADS-B (EGPG)
07:10AM 55.8952 -3.5745 258° West 236 272 5,300 2,100 Climbing FlightAware ADS-B (EGPH / EDI)
07:10AM 55.8904 -3.6155 259° West 251 289 5,900 1,200 Climbing FlightAware ADS-B (EGPG)
07:11AM 55.8863 -3.6552 260° West 257 296 6,100 300 Climbing FlightAware ADS-B (EGPH / EDI)
07:11AM 55.8831 -3.6882 261° West 250 288 6,100 660 Level FlightAware ADS-B (EGPH / EDI)
07:11AM 55.8768 -3.7527 260° West 290 334 6,600 1,560 Climbing FlightAware ADS-B (EGPF / GLA)
07:12AM 55.8725 -3.7908 259° West 297 342 7,300 2,040 Climbing FlightAware ADS-B (EGPG)
07:12AM 55.8685 -3.8274 259° West 302 348 7,700 1,200 Climbing FlightAware ADS-B (EGPG)
07:12AM 55.8646 -3.8660 260° West 322 371 8,000 1,380 Climbing FlightAware ADS-B (EGPH / EDI)
07:12AM 55.8584 -3.9257 260° West 341 392 8,600 2,400 Climbing FlightAware ADS-B (EGPH / EDI)
07:13AM 55.8483 -4.0037 254° West 345 397 10,000 2,760 Climbing FlightAware ADS-B (EGPG)
07:13AM 55.8403 -4.0541 255° West 349 402 10,700 2,220 Climbing FlightAware ADS-B (EGPH / EDI)
07:14AM 55.8241 -4.1642 257° West 359 413 12,100 2,280 Climbing FlightAware ADS-B (EGPF / GLA)
07:14AM 55.8119 -4.2502 256° West 364 419 13,300 2,400 Climbing FlightAware ADS-B (EGPF / GLA)
07:15AM 55.7984 -4.3379 255° West 369 425 14,500 2,400 Climbing FlightAware ADS-B (EGPF / GLA)
07:15AM 55.7846 -4.4254 255° West 371 427 15,800 2,820 Climbing FlightAware ADS-B (EGPF / GLA)
07:16AM 55.7718 -4.5068 255° West 363 418 17,300 2,820 Climbing FlightAware ADS-B (EGPF / GLA)
07:16AM 55.7642 -4.5542 254° West 363 418 17,900 1,920 Climbing FlightAware ADS-B (EGPG)
07:16AM 55.7582 -4.5931 255° West 366 421 18,300 1,680 Climbing FlightAware ADS-B (EGPF / GLA)
07:17AM 55.7444 -4.6797 255° West 371 427 19,200 2,040 Climbing FlightAware ADS-B (EGPF / GLA)
07:17AM 55.7372 -4.7250 254° West 375 432 19,900 1,920 Climbing FlightAware ADS-B (EGPF / GLA)
07:18AM 55.7158 -4.8594 254° West 385 443 21,100 1,740 Climbing FlightAware ADS-B (EGPF / GLA)
07:18AM 55.7010 -4.9499 255° West 387 445 22,000 1,860 Climbing FlightAware ADS-B (EGPF / GLA)
07:19AM 55.6859 -5.0432 254° West 392 451 23,000 2,040 Climbing FlightAware ADS-B (EGPF / GLA)
07:19AM 55.6756 -5.1061 254° West 393 452 23,700 1,680 Climbing FlightAware ADS-B (EGAE / LDY)
07:20AM 55.6609 -5.1965 254° West 398 458 24,400 1,500 Climbing FlightAware ADS-B (EGPF / GLA)
07:20AM 55.6451 -5.2930 254° West 401 461 25,200 1,560 Climbing FlightAware ADS-B (EGAE / LDY)
07:21AM 55.6295 -5.3867 254° West 403 464 26,000 1,440 Climbing FlightAware ADS-B (EGPG)
07:21AM 55.6126 -5.4875 254° West 408 470 26,700 1,260 Climbing FlightAware ADS-B (EGPF / GLA)
07:22AM 55.6006 -5.5599 254° West 413 475 27,200 1,260 Climbing FlightAware ADS-B (EGPK / PIK)
07:22AM 55.5850 -5.6525 255° West 414 476 27,800 1,320 Climbing FlightAware ADS-B (EGAE / LDY)
07:22AM 55.5759 -5.7064 255° West 414 476 28,200 1,380 Climbing FlightAware ADS-B (EGPF / GLA)
07:23AM 55.5606 -5.7956 253° West 419 482 28,900 1,320 Climbing FlightAware ADS-B (EGAE / LDY)
07:23AM 55.5457 -5.8837 253° West 420 483 29,400 1,200 Climbing FlightAware ADS-B (EGPF / GLA)
07:24AM 55.5350 -5.9460 253° West 421 484 29,800 1,320 Climbing FlightAware ADS-B (EGPF / GLA)
07:24AM 55.5142 -6.0662 253° West 418 481 30,700 1,440 Climbing FlightAware ADS-B (EGAE / LDY)
07:24AM 55.5050 -6.1201 253° West 417 480 31,100 1,260 Climbing FlightAware ADS-B (EGPF / GLA)
07:25AM 55.4799 -6.2641 253° West 413 475 32,000 900 Climbing FlightAware ADS-B (EGAE / LDY)
07:25AM 55.4710 -6.3146 254° West 409 471 32,000 120 Level FlightAware ADS-B (EGAE / LDY)
07:26AM 55.4592 -6.3824 253° West 413 475 32,100 120 Climbing FlightAware ADS-B (EGPF / GLA)
07:26AM 55.4484 -6.4441 253° West 417 480 32,100  Level FlightAware ADS-B (EGPF / GLA)
07:26AM 55.4365 -6.5114 254° West 416 479 32,100  Level FlightAware ADS-B (EGAE / LDY)
07:27AM 55.4178 -6.6164 254° West 417 480 32,100  Level FlightAware ADS-B (EGPF / GLA)
07:28AM 55.3987 -6.7229 253° West 422 486 32,100  Level FlightAware ADS-B (EGPG)
07:28AM 55.3771 -6.8429 252° West 423 487 32,100 -120 Level FlightAware ADS-B (EGAE / LDY)
07:29AM 55.3740 -6.9472 252° West 424 488 32,000  Descending FlightAware UK
07:29AM 55.3651 -6.9097 252° West 424 488 32,100 120 Climbing FlightAware ADS-B (EGPF / GLA)
07:29AM 55.3311 -7.0970 252° West 426 490 32,100  Level FlightAware ADS-B (EGAE / LDY)
07:30AM 55.3131 -7.1956 252° West 427 491 32,100  Level FlightAware ADS-B (EGAE / LDY)
07:30AM 55.2949 -7.2942 252° West 428 493 32,100  Level FlightAware ADS-B (EGPF / GLA)
07:31AM 55.2755 -7.3996 252° West 429 494 32,100  Level FlightAware ADS-B (EGAE / LDY)
07:32AM 55.2539 -7.5160 252° West 430 495 32,100  Level FlightAware ADS-B (EGAE / LDY)
07:32AM 55.2368 -7.6147 255° West 427 491 32,100  Level FlightAware ADS-B (EGPF / GLA)
07:33AM 55.2202 -7.7318 256° West 424 488 32,100  Level FlightAware ADS-B (EGAE / LDY)
07:33AM 55.2046 -7.8436 256° West 424 488 32,100  Level FlightAware ADS-B (EGAE / LDY)
07:34AM 55.1896 -7.9505 256° West 424 488 32,100  Level FlightAware ADS-B (EGAE / LDY)
07:34AM 55.1733 -8.0660 257° West 423 487 32,100  Level FlightAware ADS-B (EGPF / GLA)
07:35AM 55.1563 -8.1850 256° West 425 489 32,100  Level FlightAware ADS-B (EGPH / EDI)
07:35AM 55.1414 -8.2885 257° West 423 487 32,100  Level FlightAware ADS-B (EGAE / LDY)
07:36AM 55.1254 -8.3986 257° West 423 487 32,100  Level FlightAware ADS-B (EGPF / GLA)
07:37AM 55.1067 -8.5276 257° West 422 486 32,100  Level FlightAware ADS-B (EGPF / GLA)
07:37AM 55.0916 -8.6308 256° West 424 488 32,100 -120 Level FlightAware ADS-B (EGAE / LDY)
07:38AM 55.0932 -8.7693 256° West 424 488 32,000  Descending FlightAware UK
07:38AM 55.0676 -8.7944 257° West 422 486 32,100 240 Climbing FlightAware ADS-B (EGPF / GLA)
07:38AM 55.0580 -8.8584 257° West 422 486 32,100  Level FlightAware ADS-B (EGPF / GLA)
07:39AM 55.0432 -8.9578 255° West 424 488 32,100 480 Level FlightAware ADS-B (EGAE / LDY)
07:40AM 55.0001 -9.2433 255° West 413 475 33,100 420 Climbing FlightAware ADS-B (EGAE / LDY)
07:41AM 54.9783 -9.3873 256° West 410 472 33,100  Level FlightAware ADS-B (EGAE / LDY)
07:42AM 54.9366 -9.6580 256° West 413 475 33,100  Level FlightAware ADS-B (EGAE / LDY)
07:43AM 54.9102 -9.8273 256° West 415 478 33,100 -60 Level FlightAware ADS-B (EGAE / LDY)
08:37AM 54.0000 -20.0000 274° West 391 450 33,000 -60 Descending ETMS Enhanced Traffic Management System
08:38AM 55.3858 -20.5982 270° West  Level Estimated
08:39AM 55.3856 -20.8038 270° West  Level Estimated
08:40AM 55.3851 -21.0093 270° West  Level Estimated
08:41AM 55.3842 -21.2149 270° West  Level Estimated
08:42AM 55.3829 -21.4204 269° West  Level Estimated
08:43AM 54.0410 -21.1085 273° West 391 450 33,000  Level FlightAware Transoceanic
08:44AM 54.0468 -21.2935 273° West 391 450 33,000  Level FlightAware Transoceanic
08:45AM 54.0524 -21.4785 273° West 391 450 33,000  Level FlightAware Transoceanic
08:46AM 54.0576 -21.6636 273° West 391 450 33,000  Level FlightAware Transoceanic
08:47AM 54.0626 -21.8487 273° West 391 450 33,000  Level FlightAware Transoceanic
08:48AM 54.0673 -22.0338 272° West 391 450 33,000  Level FlightAware Transoceanic
08:49AM 54.0717 -22.2190 272° West 391 450 33,000  Level FlightAware Transoceanic
08:50AM 54.0759 -22.4042 272° West 391 450 33,000  Level FlightAware Transoceanic
08:51AM 54.0797 -22.5895 272° West 391 450 33,000  Level FlightAware Transoceanic
08:52AM 54.0833 -22.7748 272° West 391 450 33,000  Level FlightAware Transoceanic
08:53AM 54.0866 -22.9601 272° West 391 450 33,000  Level FlightAware Transoceanic
08:54AM 54.0896 -23.1455 272° West 391 450 33,000  Level FlightAware Transoceanic
08:55AM 54.0923 -23.3309 271° West 391 450 33,000  Level FlightAware Transoceanic
08:56AM 54.0947 -23.5163 271° West 391 450 33,000  Level FlightAware Transoceanic
08:57AM 54.0968 -23.7017 271° West 391 450 33,000  Level FlightAware Transoceanic
08:58AM 54.0987 -23.8871 271° West 391 450 33,000  Level FlightAware Transoceanic
08:59AM 54.1003 -24.0726 271° West 391 450 33,000  Level FlightAware Transoceanic
09:00AM 54.1015 -24.2581 271° West 391 450 33,000  Level FlightAware Transoceanic
09:01AM 54.1025 -24.4435 270° West 391 450 33,000  Level FlightAware Transoceanic
09:02AM 54.1032 -24.6290 270° West 391 450 33,000  Level FlightAware Transoceanic
09:03AM 54.1037 -24.8145 270° West 391 450 33,000  Level FlightAware Transoceanic
09:04AM 54.1038 -25.0000 270° West 391 450 33,000  Level FlightAware Transoceanic
09:05AM 54.1037 -25.1855 270° West 391 450 33,000  Level FlightAware Transoceanic
09:06AM 54.1032 -25.3710 270° West 391 450 33,000  Level FlightAware Transoceanic
09:07AM 54.1025 -25.5565 270° West 391 450 33,000  Level FlightAware Transoceanic
09:08AM 54.1015 -25.7419 269° West 391 450 33,000  Level FlightAware Transoceanic
09:09AM 54.1003 -25.9274 269° West 391 450 33,000  Level FlightAware Transoceanic
09:10AM 54.0987 -26.1129 269° West 391 450 33,000  Level FlightAware Transoceanic
09:11AM 54.0968 -26.2983 269° West 391 450 33,000  Level FlightAware Transoceanic
09:12AM 54.0947 -26.4837 269° West 391 450 33,000  Level FlightAware Transoceanic
09:13AM 54.0923 -26.6691 269° West 391 450 33,000  Level FlightAware Transoceanic
09:14AM 54.0896 -26.8545 268° West 391 450 33,000  Level FlightAware Transoceanic
09:15AM 54.0866 -27.0399 268° West 391 450 33,000  Level FlightAware Transoceanic
09:16AM 54.0833 -27.2252 268° West 391 450 33,000  Level FlightAware Transoceanic
09:17AM 54.0797 -27.4105 268° West 391 450 33,000  Level FlightAware Transoceanic
09:18AM 54.0759 -27.5958 268° West 391 450 33,000  Level FlightAware Transoceanic
09:19AM 54.0717 -27.7810 268° West 391 450 33,000  Level FlightAware Transoceanic
09:20AM 54.0673 -27.9662 268° West 391 450 33,000  Level FlightAware Transoceanic
09:21AM 54.0626 -28.1513 267° West 391 450 33,000  Level FlightAware Transoceanic
09:22AM 54.0576 -28.3364 267° West 391 450 33,000  Level FlightAware Transoceanic
09:23AM 54.0524 -28.5215 267° West 391 450 33,000  Level FlightAware Transoceanic
09:24AM 54.0468 -28.7065 267° West 391 450 33,000  Level FlightAware Transoceanic
09:25AM 54.0410 -28.8915 267° West 391 450 33,000  Level FlightAware Transoceanic
09:26AM 54.0349 -29.0763 267° West 391 450 33,000  Level FlightAware Transoceanic
09:27AM 54.0285 -29.2612 267° West 391 450 33,000  Level FlightAware Transoceanic
09:28AM 54.0218 -29.4460 266° West 391 450 33,000  Level FlightAware Transoceanic
09:29AM 54.0148 -29.6307 266° West 391 450 33,000  Level FlightAware Transoceanic
09:30AM 54.0075 -29.8154 266° West 391 450 33,000  Level FlightAware Transoceanic
09:31AM 53.9994 -30.0153 266° West  Level FlightAware Approximate
09:32AM 53.9866 -30.2144 274° West  Level Estimated
09:33AM 53.9948 -30.4142 274° West  Level FlightAware Approximate
09:34AM 54.0028 -30.6141 274° West  Level FlightAware Approximate
09:35AM 54.0103 -30.8141 274° West  Level FlightAware Approximate
09:36AM 54.0176 -31.0142 274° West  Level FlightAware Approximate
09:37AM 54.0245 -31.2143 273° West  Level FlightAware Approximate
09:38AM 54.0311 -31.4144 273° West  Level FlightAware Approximate
09:39AM 54.0373 -31.6147 273° West  Level FlightAware Approximate
09:40AM 54.0432 -31.8150 273° West  Level FlightAware Approximate
09:41AM 54.0488 -32.0153 273° West  Level FlightAware Approximate
09:42AM 54.0541 -32.2157 273° West  Level FlightAware Approximate
09:43AM 54.0590 -32.4162 272° West  Level FlightAware Approximate
09:44AM 54.0636 -32.6167 272° West  Level FlightAware Approximate
09:45AM 54.0678 -32.8172 272° West  Level FlightAware Approximate
09:46AM 54.0718 -33.0178 272° West  Level FlightAware Approximate
09:47AM 54.0753 -33.2184 272° West  Level FlightAware Approximate
09:48AM 54.0786 -33.4191 272° West  Level FlightAware Approximate
09:49AM 54.0815 -33.6197 272° West  Level FlightAware Approximate
09:50AM 54.0841 -33.8204 271° West  Level FlightAware Approximate
09:51AM 54.0863 -34.0212 271° West  Level FlightAware Approximate
09:52AM 54.0882 -34.2219 271° West  Level FlightAware Approximate
09:53AM 54.0898 -34.4227 271° West  Level FlightAware Approximate
09:54AM 54.0911 -34.6235 271° West  Level FlightAware Approximate
09:55AM 54.0920 -34.8243 271° West  Level FlightAware Approximate
09:56AM 54.0926 -35.0251 270° West  Level FlightAware Approximate
09:57AM 54.0928 -35.2259 270° West  Level FlightAware Approximate
09:58AM 54.0927 -35.4267 270° West  Level FlightAware Approximate
09:59AM 54.0923 -35.6275 270° West  Level FlightAware Approximate
10:00AM 54.0915 -35.8283 270° West  Level FlightAware Approximate
10:01AM 54.0905 -36.0290 270° West  Level FlightAware Approximate
10:02AM 54.0890 -36.2298 269° West  Level FlightAware Approximate
10:03AM 54.0873 -36.4306 269° West  Level FlightAware Approximate
10:04AM 54.0852 -36.6313 269° West  Level FlightAware Approximate
10:05AM 54.0827 -36.8320 269° West  Level FlightAware Approximate
10:06AM 54.0800 -37.0327 269° West  Level FlightAware Approximate
10:07AM 54.0769 -37.2334 269° West  Level FlightAware Approximate
10:08AM 54.0734 -37.4340 268° West  Level FlightAware Approximate
10:09AM 54.0697 -37.6346 268° West  Level FlightAware Approximate
10:10AM 54.0656 -37.8352 268° West  Level FlightAware Approximate
10:11AM 54.0611 -38.0357 268° West  Level FlightAware Approximate
10:12AM 54.0564 -38.2362 268° West  Level FlightAware Approximate
10:13AM 54.0513 -38.4366 268° West  Level FlightAware Approximate
10:14AM 54.0458 -38.6370 267° West  Level FlightAware Approximate
10:15AM 54.0401 -38.8373 267° West  Level FlightAware Approximate
10:16AM 54.0340 -39.0376 267° West  Level FlightAware Approximate
10:17AM 54.0275 -39.2378 267° West  Level FlightAware Approximate
10:18AM 54.0208 -39.4379 267° West  Level FlightAware Approximate
10:19AM 54.0137 -39.6380 267° West  Level FlightAware Approximate
10:20AM 54.0063 -39.8380 266° West  Level FlightAware Approximate
10:21AM 53.9985 -40.0379 266° West  Level FlightAware Approximate
10:22AM 53.9653 -40.2300 256° West  Level Estimated
10:23AM 53.9356 -40.4237 255° West  Level FlightAware Approximate
10:24AM 53.9056 -40.6171 255° West  Level FlightAware Approximate
10:25AM 53.8753 -40.8102 255° West  Level FlightAware Approximate
10:26AM 53.8446 -41.0030 255° West  Level FlightAware Approximate
10:27AM 53.8137 -41.1955 255° West  Level FlightAware Approximate
10:28AM 53.7824 -41.3877 255° West  Level FlightAware Approximate
10:29AM 53.7509 -41.5797 255° West  Level FlightAware Approximate
10:30AM 53.7190 -41.7714 254° West  Level FlightAware Approximate
10:31AM 53.6869 -41.9627 254° West  Level FlightAware Approximate
10:32AM 53.6544 -42.1538 254° West  Level FlightAware Approximate
10:33AM 53.6216 -42.3446 254° West  Level FlightAware Approximate
10:34AM 53.5886 -42.5351 254° West  Level FlightAware Approximate
10:35AM 53.5552 -42.7253 254° West  Level FlightAware Approximate
10:36AM 53.5215 -42.9152 253° West  Level FlightAware Approximate
10:37AM 53.4875 -43.1048 253° West  Level FlightAware Approximate
10:38AM 53.4532 -43.2940 253° West  Level FlightAware Approximate
10:39AM 53.4187 -43.4830 253° West  Level FlightAware Approximate
10:40AM 53.3838 -43.6717 253° West  Level FlightAware Approximate
10:41AM 53.3486 -43.8600 253° West  Level FlightAware Approximate
10:42AM 53.3131 -44.0481 253° West  Level FlightAware Approximate
10:43AM 53.2774 -44.2358 252° West  Level FlightAware Approximate
10:44AM 53.2413 -44.4232 252° West  Level FlightAware Approximate
10:45AM 53.2050 -44.6103 252° West  Level FlightAware Approximate
10:46AM 53.1683 -44.7971 252° West  Level FlightAware Approximate
10:47AM 53.1314 -44.9836 252° West  Level FlightAware Approximate
10:48AM 53.0942 -45.1697 252° West  Level FlightAware Approximate
10:49AM 53.0567 -45.3555 251° West  Level FlightAware Approximate
10:50AM 53.0189 -45.5410 251° West  Level FlightAware Approximate
10:51AM 52.9808 -45.7262 251° West  Level FlightAware Approximate
10:52AM 52.9424 -45.9110 251° West  Level FlightAware Approximate
10:53AM 52.9037 -46.0955 251° West  Level FlightAware Approximate
10:54AM 52.8648 -46.2797 251° West  Level FlightAware Approximate
10:55AM 52.8255 -46.4635 251° West  Level FlightAware Approximate
10:56AM 52.7860 -46.6470 250° West  Level FlightAware Approximate
10:57AM 52.7462 -46.8302 250° West  Level FlightAware Approximate
10:58AM 52.7061 -47.0131 250° West  Level FlightAware Approximate
10:59AM 52.6658 -47.1956 250° West  Level FlightAware Approximate
11:00AM 52.6251 -47.3777 250° West  Level FlightAware Approximate
11:01AM 52.5842 -47.5596 250° West  Level FlightAware Approximate
11:02AM 52.5430 -47.7411 250° West  Level FlightAware Approximate
11:03AM 52.5015 -47.9222 249° West  Level FlightAware Approximate
11:04AM 52.4598 -48.1030 249° West  Level FlightAware Approximate
11:05AM 52.4177 -48.2835 249° West  Level FlightAware Approximate
11:06AM 52.3754 -48.4636 249° West  Level FlightAware Approximate
11:07AM 52.3329 -48.6433 249° West  Level FlightAware Approximate
11:08AM 52.2900 -48.8228 249° West  Level FlightAware Approximate
11:09AM 52.2469 -49.0019 249° West  Level FlightAware Approximate
11:10AM 52.2035 -49.1806 248° West  Level FlightAware Approximate
11:11AM 52.1599 -49.3590 248° West  Level FlightAware Approximate
11:12AM 52.1159 -49.5370 248° West  Level FlightAware Approximate
11:13AM 52.0717 -49.7146 248° West  Level FlightAware Approximate
11:14AM 52.0273 -49.8920 248° West  Level FlightAware Approximate
11:15AM 51.9825 -50.0689 248° West  Level FlightAware Approximate
11:16AM 51.9329 -50.2418 248° West  Level Estimated
11:17AM 51.8898 -50.4190 249° West  Level FlightAware Approximate
11:17AM 51.8667 -50.5833 248° West 440 506 35,100  Level Gander Center
11:18AM 51.8465 -50.5958 248° West  Level FlightAware Approximate
11:18AM 51.8000 -50.7667 240° Southwest 440 506 35,100  Level Gander Center
11:19AM 51.8028 -50.7723 248° West  Level FlightAware Approximate
11:19AM 51.7500 -50.9333 244° Southwest 440 506 35,100  Level Gander Center
11:20AM 51.7589 -50.9484 248° West  Level FlightAware Approximate
11:20AM 51.7000 -51.1333 248° West 440 506 35,100  Level Gander Center
11:21AM 51.7148 -51.1242 248° West  Level FlightAware Approximate
11:21AM 51.6667 -51.3167 254° West 430 495 35,100  Level Gander Center
11:22AM 51.6634 -51.2947 248° West  Level Estimated
11:22AM 51.6167 -51.4667 242° Southwest 440 506 35,100  Level Moncton Center
11:23AM 51.6201 -51.4707 248° West  Level FlightAware Approximate
11:23AM 51.5667 -51.6500 246° West 440 506 35,100  Level Moncton Center
11:24AM 51.5333 -51.8167 252° West 440 506 35,100  Level Moncton Center
11:25AM 51.4833 -52.0000 246° West 440 506 35,100 180 Level Moncton Center
11:26AM 51.4333 -52.1167 236° Southwest 440 506 35,500 540 Climbing Gander Center
11:27AM 51.3833 -52.2833 244° Southwest 440 506 36,100 300 Climbing Gander Center
11:28AM 51.3167 -52.4667 240° Southwest 450 518 36,100  Level Gander Center
11:29AM 51.2333 -52.6167 228° Southwest 440 506 36,100  Level Gander Center
11:30AM 51.1667 -52.7833 238° Southwest 440 506 36,100  Level Gander Center
11:31AM 51.1167 -52.9667 247° West 440 506 36,100  Level Gander Center
11:32AM 51.0333 -53.1000 225° Southwest 440 506 36,100  Level Gander Center
11:33AM 50.9833 -53.2833 247° West 440 506 36,100  Level Gander Center
11:34AM 50.9167 -53.4500 238° Southwest 440 506 36,100  Level Gander Center
11:35AM 50.8333 -53.6000 229° Southwest 440 506 36,100  Level Gander Center
11:36AM 50.7833 -53.7667 245° Southwest 450 518 36,100  Level Gander Center
11:37AM 50.6667 -53.9667 227° Southwest 450 518 36,100  Level Moncton Center
11:38AM 50.6000 -54.1500 240° Southwest 450 518 36,100  Level Moncton Center
11:39AM 50.5333 -54.3167 238° Southwest 450 518 36,100  Level Moncton Center
11:40AM 50.4667 -54.4667 235° Southwest 460 529 36,100  Level Moncton Center
11:41AM 50.4000 -54.6333 238° Southwest 450 518 36,100  Level Moncton Center
11:42AM 50.3167 -54.7833 229° Southwest 450 518 36,100  Level Moncton Center
11:43AM 50.2500 -54.9500 238° Southwest 450 518 36,100  Level Moncton Center
11:44AM 50.2000 -55.0667 236° Southwest 450 518 36,100  Level Gander Center
11:45AM 50.1333 -55.2333 238° Southwest 450 518 36,100  Level Gander Center
11:46AM 50.0500 -55.4000 232° Southwest 450 518 36,100  Level Gander Center
11:47AM 50.0000 -55.5500 243° Southwest 450 518 36,100  Level Gander Center
11:48AM 49.9167 -55.7167 232° Southwest 450 518 36,100  Level Gander Center
11:49AM 49.8167 -55.9000 230° Southwest 450 518 36,100  Level Moncton Center
11:50AM 49.7667 -56.0333 240° Southwest 440 506 36,100  Level Gander Center
11:51AM 49.7000 -56.1667 232° Southwest 440 506 36,100  Level Gander Center
11:52AM 49.6000 -56.3833 235° Southwest 440 506 36,100  Level Moncton Center
11:53AM 49.5333 -56.5500 238° Southwest 440 506 36,100  Level Moncton Center
11:54AM 49.4667 -56.6833 232° Southwest 440 506 36,100  Level Moncton Center
11:55AM 49.3833 -56.8500 233° Southwest 440 506 36,100  Level Moncton Center
11:56AM 49.3167 -57.0000 236° Southwest 450 518 36,100  Level Moncton Center
11:57AM 49.2500 -57.1500 236° Southwest 450 518 36,100  Level Moncton Center
11:58AM 49.1667 -57.3000 230° Southwest 450 518 36,100 -60 Level Moncton Center
11:59AM 49.1000 -57.4667 239° Southwest 450 518 36,000  Descending Moncton Center
12:00PM 49.0167 -57.6000 226° Southwest 450 518 36,100  Climbing Moncton Center
12:01PM 48.9500 -57.7667 239° Southwest 450 518 36,100  Level Moncton Center
12:02PM 48.8667 -57.9000 226° Southwest 450 518 36,100  Level Moncton Center
12:03PM 48.8000 -58.0667 239° Southwest 440 506 36,100  Level Moncton Center
12:04PM 48.7167 -58.2333 233° Southwest 450 518 36,100  Level Moncton Center
12:05PM 48.6500 -58.3667 233° Southwest 440 506 36,100  Level Moncton Center
12:06PM 48.5667 -58.5000 227° Southwest 440 506 36,100  Level Moncton Center
12:07PM 48.5000 -58.6667 239° Southwest 460 529 36,100  Level Moncton Center
12:08PM 48.4167 -58.8167 230° Southwest 450 518 36,100  Level Moncton Center
12:09PM 48.3333 -58.9500 227° Southwest 450 518 36,100  Level Moncton Center
12:10PM 48.2667 -59.1167 239° Southwest 450 518 36,100  Level Moncton Center
12:11PM 48.1833 -59.2500 227° Southwest 450 518 36,100  Level Moncton Center
12:12PM 48.1167 -59.4000 236° Southwest 450 518 36,100  Level Moncton Center
12:13PM 48.0333 -59.5667 233° Southwest 450 518 36,100  Level Moncton Center
12:14PM 47.9500 -59.7000 227° Southwest 450 518 36,100  Level Moncton Center
12:20PM 47.5094 -60.5664 232° Southwest 454 522 36,100  Level FlightAware ADS-B (CYQY)
12:21PM 47.4227 -60.7255 232° Southwest 455 524 36,100  Level FlightAware ADS-B (CYQY)
12:21PM 47.3840 -60.7961 232° Southwest 455 524 36,100  Level FlightAware ADS-B (CYQY)
12:22PM 47.3557 -60.8478 232° Southwest 456 525 36,100  Level FlightAware ADS-B (CYQY)
12:22PM 47.3014 -60.9461 232° Southwest 457 526 36,100  Level FlightAware ADS-B (CYQY)
12:23PM 47.2589 -61.0233 231° Southwest 458 527 36,100  Level FlightAware ADS-B (CYQY)
12:23PM 47.2345 -61.0674 231° Southwest 459 528 36,100  Level FlightAware ADS-B (CYQY)
12:24PM 47.1882 -61.1507 231° Southwest 459 528 36,100  Level FlightAware ADS-B (CYQY)
12:24PM 47.1647 -61.1933 231° Southwest 460 529 36,100  Level FlightAware ADS-B (CYQY)
12:25PM 47.0945 -61.3188 231° Southwest 461 531 36,100  Level FlightAware ADS-B (CYQY)
12:26PM 47.0569 -61.3860 231° Southwest 461 531 36,100  Level FlightAware ADS-B (CYQY)
12:26PM 47.0217 -61.4488 231° Southwest 462 532 36,100  Level FlightAware ADS-B (CYQY)
12:27PM 46.9727 -61.5356 231° Southwest 463 533 36,100  Level FlightAware ADS-B (CYQY)
12:27PM 46.9322 -61.6073 231° Southwest 463 533 36,100  Level FlightAware ADS-B (CYQY)
12:28PM 46.8946 -61.6738 231° Southwest 463 533 36,100  Level FlightAware ADS-B (CYQY)
12:28PM 46.8545 -61.7445 231° Southwest 463 533 36,100  Level FlightAware ADS-B (CYQY)
12:29PM 46.8121 -61.8189 231° Southwest 462 532 36,100  Level FlightAware ADS-B (CYQY)
12:29PM 46.7736 -61.8865 231° Southwest 462 532 36,100  Level FlightAware ADS-B (CYQY)
12:29PM 46.7338 -61.9559 231° Southwest 463 533 36,100  Level FlightAware ADS-B (CYQY)
12:30PM 46.6879 -62.0357 231° Southwest 463 533 36,100  Level FlightAware ADS-B (CYQY)
12:31PM 46.6467 -62.1072 230° Southwest 463 533 36,100  Level FlightAware ADS-B (CYQY)
12:31PM 46.6081 -62.1744 230° Southwest 463 533 36,100  Level FlightAware ADS-B (CYQY)
12:32PM 46.5638 -62.2509 230° Southwest 462 532 36,100  Level FlightAware ADS-B (CYQY)
12:32PM 46.4849 -62.3867 230° Southwest 461 531 36,100  Level FlightAware ADS-B (CYQY)
12:34PM 46.3826 -62.5614 230° Southwest 461 531 36,100  Level FlightAware ADS-B (CYQY)
12:34PM 46.3390 -62.6356 230° Southwest 461 531 36,100  Level FlightAware ADS-B (CYQY)
12:35PM 46.2380 -62.8064 230° Southwest 464 534 36,100  Level FlightAware ADS-B (CYQY)
12:36PM 46.1667 -62.9000 230° Southwest 460 529 36,100  Level Moncton Center
12:41PM 45.7371 -63.6381 229° Southwest 462 532 36,100  Level FlightAware ADS-B (CYQI)
12:42PM 45.6676 -63.7513 229° Southwest 461 531 36,100  Level FlightAware ADS-B (CYQI)
12:43PM 45.6300 -63.8125 229° Southwest 460 529 36,100  Level FlightAware ADS-B (CYQY)
12:44PM 45.5541 -63.9353 229° Southwest 460 529 36,100  Level FlightAware ADS-B (CYQI)
12:44PM 45.4982 -64.0258 229° Southwest 459 528 36,100  Level FlightAware ADS-B (CYQI)
12:45PM 45.4470 -64.1080 229° Southwest 459 528 36,100  Level FlightAware ADS-B (CYQI)
12:46PM 45.3909 -64.1978 228° Southwest 459 528 36,100  Level FlightAware ADS-B (CYQI)
12:46PM 45.3366 -64.2846 228° Southwest 459 528 36,100  Level FlightAware ADS-B (CYQI)
12:47PM 45.2734 -64.3848 228° Southwest 458 527 36,100  Level FlightAware ADS-B (CYQI)
12:48PM 45.2168 -64.4748 228° Southwest 459 528 36,100  Level FlightAware ADS-B (CYQI)
12:48PM 45.1705 -64.5480 228° Southwest 459 528 36,100  Level FlightAware ADS-B (CYQI)
12:49PM 45.1049 -64.6515 228° Southwest 460 529 36,100  Level FlightAware ADS-B (CYQI)
12:50PM 45.0457 -64.7445 228° Southwest 459 528 36,100  Level FlightAware ADS-B (CYQI)
12:50PM 44.9906 -64.8307 228° Southwest 459 528 36,100  Level FlightAware ADS-B (CYQI)
12:51PM 44.9324 -64.9215 228° Southwest 459 528 36,100  Level FlightAware ADS-B (CYQI)
12:52PM 44.8766 -65.0081 228° Southwest 458 527 36,100  Level FlightAware ADS-B (CYQI)
12:52PM 44.8196 -65.0965 228° Southwest 457 526 36,100  Level FlightAware ADS-B (CYQI)
12:53PM 44.7629 -65.1843 228° Southwest 457 526 36,100  Level FlightAware ADS-B (CYQI)
12:54PM 44.7070 -65.2703 228° Southwest 456 525 36,100  Level FlightAware ADS-B (CYQI)
12:54PM 44.6493 -65.3588 228° Southwest 455 524 36,100  Level FlightAware ADS-B (CYQI)
12:55PM 44.5942 -65.4432 228° Southwest 456 525 36,100  Level FlightAware ADS-B (CYQI)
12:56PM 44.5353 -65.5329 228° Southwest 454 522 36,100  Level FlightAware ADS-B (CYQI)
12:56PM 44.4792 -65.6184 227° Southwest 454 522 36,100  Level FlightAware ADS-B (CYQI)
12:57PM 44.4253 -65.7001 227° Southwest 453 521 36,100  Level FlightAware ADS-B (CYQI)
12:58PM 44.3666 -65.7889 227° Southwest 452 520 36,100  Level FlightAware ADS-B (CYQI)
12:58PM 44.3104 -65.8735 227° Southwest 452 520 36,100  Level FlightAware ADS-B (CYQI)
12:59PM 44.2519 -65.9612 227° Southwest 452 520 36,100  Level FlightAware ADS-B (CYQI)
01:00PM 44.2143 -66.0179 227° Southwest 451 519 36,100  Level FlightAware ADS-B (CYQI)
01:00PM 44.1379 -66.1319 227° Southwest 451 519 36,100  Level FlightAware ADS-B (CYQI)
01:01PM 44.0818 -66.2156 227° Southwest 450 518 36,100  Level FlightAware ADS-B (CYQI)
01:02PM 44.0301 -66.2923 227° Southwest 450 518 36,100  Level FlightAware ADS-B (CYQI)
01:02PM 43.9670 -66.3859 227° Southwest 451 519 36,100  Level FlightAware ADS-B (CYQI)
01:03PM 43.9185 -66.4573 227° Southwest 451 519 36,100  Level FlightAware ADS-B (CYQI)
01:04PM 43.8526 -66.5545 227° Southwest 451 519 36,100  Level FlightAware ADS-B (CYQI)
01:04PM 43.8039 -66.6261 227° Southwest 451 519 36,100  Level FlightAware ADS-B (CYQI)
01:05PM 43.7532 -66.7000 227° Southwest 451 519 36,100  Level FlightAware ADS-B (KBOS)
01:05PM 43.7089 -66.7649 227° Southwest 451 519 36,100  Level FlightAware ADS-B (CYQI)
01:06PM 43.6537 -66.8455 227° Southwest 451 519 36,100  Level FlightAware ADS-B (CYQI)
01:07PM 43.5948 -66.9309 227° Southwest 451 519 36,100  Level FlightAware ADS-B (CYQI)
01:07PM 43.5486 -67.0063 239° Southwest 443 510 36,100  Level FlightAware ADS-B (CYQI)
01:08PM 43.5117 -67.1153 248° West 438 504 36,100  Level FlightAware ADS-B (CYQI)
01:09PM 43.4827 -67.2171 249° West 437 503 36,100  Level FlightAware ADS-B (CYQI)
01:09PM 43.4475 -67.3410 249° West 437 503 36,100  Level FlightAware ADS-B (CYQI)
01:10PM 43.4144 -67.4566 249° West 436 502 36,100  Level FlightAware ADS-B (CYQI)
01:11PM 43.3567 -67.6566 248° West 436 502 36,100  Level FlightAware ADS-B (CYQI)
01:12PM 43.3292 -67.7513 248° West 436 502 36,100  Level FlightAware ADS-B (CYQI)
01:13PM 43.3007 -67.8491 248° West 435 501 36,100  Level FlightAware ADS-B (CYQI)
01:14PM 43.2278 -68.0984 248° West 433 498 36,100  Level FlightAware ADS-B (KBOS)
01:15PM 43.1881 -68.2326 248° West 433 498 36,100  Level FlightAware ADS-B (KBOS)
01:16PM 43.1582 -68.3334 248° West 433 498 36,100  Level FlightAware ADS-B (KBOS)
01:17PM 43.0918 -68.5574 248° West 433 498 36,100  Level FlightAware ADS-B (KBOS)
01:18PM 43.0462 -68.7109 248° West 432 497 36,100  Level FlightAware ADS-B (KBOS)
01:19PM 42.9952 -68.8803 248° West 430 495 36,100  Level FlightAware ADS-B (KBOS)
01:20PM 42.9483 -69.0351 248° West 429 494 36,100  Level FlightAware ADS-B (KBOS)
01:21PM 42.9176 -69.1370 248° West 429 494 36,100  Level FlightAware ADS-B (KBOS)
01:22PM 42.8869 -69.2379 248° West 428 493 36,100  Level FlightAware ADS-B (KBOS)
01:23PM 42.8552 -69.3413 247° West 427 491 36,100  Level FlightAware ADS-B (KBOS)
01:23PM 42.8233 -69.4454 247° West 426 490 36,100  Level FlightAware ADS-B (KBOS)
01:24PM 42.7967 -69.5323 247° West 425 489 36,100  Level FlightAware ADS-B (KASH)
01:24PM 42.7729 -69.6101 247° West 425 489 36,100 -120 Level FlightAware ADS-B (KASH)
01:25PM 42.7420 -69.7101 247° West 424 488 36,000 -720 Descending FlightAware ADS-B (KBOS)
01:26PM 42.7201 -69.7804 247° West 429 494 35,300 -1,500 Descending FlightAware ADS-B (KBOS)
01:26PM 42.6947 -69.8626 247° West 434 499 34,500 -1,560 Descending FlightAware ADS-B (KBOS)
01:27PM 42.6638 -69.9616 247° West 441 507 33,500 -1,560 Descending FlightAware ADS-B (KBOS)
01:27PM 42.6361 -70.0505 248° West 442 509 32,600 -1,620 Descending FlightAware ADS-B (KASH)
01:28PM 42.5976 -70.1733 247° West 443 510 31,300 -1,920 Descending FlightAware ADS-B (KBOS)
01:29PM 42.5727 -70.2524 247° West 438 504 30,100 -2,280 Descending FlightAware ADS-B (KBOS)
01:29PM 42.5466 -70.3348 247° West 432 497 28,900 -1,680 Descending FlightAware ADS-B (KBOS)
01:30PM 42.5171 -70.4287 247° West 423 487 28,100 -600 Descending FlightAware ADS-B (KBOS)
01:31PM 42.4829 -70.5367 247° West 424 488 28,100 -240 Level FlightAware ADS-B (KBOS)
01:31PM 42.4555 -70.6222 248° West 428 493 27,800 -840 Descending FlightAware ADS-B (KASH)
01:32PM 42.4021 -70.7893 247° West 417 480 26,700 -960 Descending FlightAware ADS-B (KBOS)
01:33PM 42.3777 -70.8658 247° West 410 472 26,200 -1,020 Descending FlightAware ADS-B (KBED)
01:33PM 42.3549 -70.9365 247° West 409 471 25,600 -1,080 Descending FlightAware ADS-B (KBED)
01:34PM 42.3290 -71.0232 251° West 409 471 25,000 -1,020 Descending FlightAware ADS-B (KBED)
01:34PM 42.3092 -71.1047 253° West 405 466 24,500 -960 Descending FlightAware ADS-B (KBED)
01:35PM 42.2917 -71.1794 253° West 400 460 24,000 -960 Descending FlightAware ADS-B (KBED)
01:35PM 42.2817 -71.2226 253° West 398 458 23,700 -1,080 Descending FlightAware ADS-B (KBOS)
01:36PM 42.2632 -71.3021 254° West 392 451 23,100 -1,080 Descending FlightAware ADS-B (KASH)
01:36PM 42.2464 -71.3739 252° West 389 448 22,600 -1,080 Descending FlightAware ADS-B (KASH)
01:37PM 42.2381 -71.4084 252° West 388 447 22,300 -900 Descending FlightAware ADS-B (KBOS)
01:37PM 42.2212 -71.4801 253° West 387 445 21,900 -840 Descending FlightAware ADS-B (KBED)
01:38PM 42.2054 -71.5465 253° West 383 441 21,500 -840 Descending FlightAware ADS-B (KBED)
01:38PM 42.1887 -71.6166 252° West 384 442 21,100 -840 Descending FlightAware ADS-B (KASH)
01:39PM 42.1722 -71.6863 252° West 383 441 20,700 -780 Descending FlightAware ADS-B (KASH)
01:39PM 42.1532 -71.7657 253° West 380 437 20,300 -780 Descending FlightAware ADS-B (KBED)
01:40PM 42.1413 -71.8151 252° West 377 434 20,000 -840 Descending FlightAware ADS-B (KASH)
01:40PM 42.1186 -71.9098 253° West 373 429 19,400 -840 Descending FlightAware ADS-B (KBED)
01:41PM 42.1101 -71.9448 252° West 374 430 19,200 -900 Descending FlightAware ADS-B (KSNC)
01:41PM 42.0941 -72.0115 252° West 372 428 18,600 -840 Descending FlightAware ADS-B (KSNC)
01:42PM 42.0653 -72.1302 252° West 369 425 18,100 -780 Descending FlightAware ADS-B (KSNC)
01:43PM 42.0291 -72.2785 252° West 368 423 17,200 -840 Descending FlightAware ADS-B (KSNC)
01:44PM 42.0100 -72.3560 252° West 374 430 16,700 -780 Descending FlightAware ADS-B (KSNC)
01:44PM 41.9913 -72.4320 252° West 372 428 16,300 -780 Descending FlightAware ADS-B (KSNC)
01:45PM 41.9740 -72.5025 252° West 371 427 15,900 -480 Descending FlightAware ADS-B (KSNC)
01:45PM 41.9575 -72.5690 252° West 367 422 15,800 -120 Descending FlightAware ADS-B (KSNC)
01:46PM 41.9309 -72.6758 252° West 369 425 15,800  Level FlightAware ADS-B (KSNC)
01:47PM 41.9008 -72.8024 253° West 368 423 15,800  Level FlightAware ADS-B (KISP)
01:48PM 41.8811 -72.8881 253° West 366 421 15,800  Level FlightAware ADS-B (KISP)
01:48PM 41.8646 -72.9585 253° West 369 425 15,800  Level FlightAware ADS-B (KISP)
01:49PM 41.8511 -73.0156 253° West 369 425 15,800  Level FlightAware ADS-B (KISP)
01:49PM 41.8347 -73.0841 253° West 368 423 15,800  Level FlightAware ADS-B (KISP)
01:50PM 41.8256 -73.1224 252° West 368 423 15,800  Level FlightAware ADS-B (KSNC)
01:50PM 41.8064 -73.2031 252° West 368 423 15,800 -60 Level FlightAware ADS-B (KSNC)
01:51PM 41.7702 -73.3545 252° West 367 422 15,700 -900 Descending FlightAware ADS-B (KSNC)
01:52PM 41.7441 -73.4625 252° West 358 412 14,100 -1,980 Descending FlightAware ADS-B (KSNC)
01:53PM 41.7199 -73.5492 243° Southwest 352 405 12,600 -2,100 Descending FlightAware ADS-B (KSNC)
01:53PM 41.6945 -73.6060 238° Southwest 351 404 11,600 -1,920 Descending FlightAware ADS-B (KSNC)
01:54PM 41.6608 -73.6755 237° Southwest 333 383 10,400 -1,500 Descending FlightAware ADS-B (KISP)
01:55PM 41.6368 -73.7248 238° Southwest 314 361 9,900 -960 Descending FlightAware ADS-B (KISP)
01:55PM 41.6246 -73.7502 237° Southwest 306 352 9,700 -900 Descending FlightAware ADS-B (KISP)
01:56PM 41.5850 -73.8314 237° Southwest 279 321 8,900 -1,020 Descending FlightAware ADS-B (KLGA)
01:56PM 41.5724 -73.8571 238° Southwest 277 319 8,500 -1,440 Descending FlightAware ADS-B (KLGA)
01:56PM 41.5608 -73.8810 237° Southwest 276 318 8,100 -1,560 Descending FlightAware ADS-B (KLGA)
01:57PM 41.5505 -73.9021 237° Southwest 275 316 7,700 -1,380 Descending FlightAware ADS-B (KLGA)
01:57PM 41.5366 -73.9306 237° Southwest 270 311 7,300 -1,080 Descending FlightAware ADS-B (KLGA)
01:57PM 41.5185 -73.9671 237° Southwest 262 302 6,800 -720 Descending FlightAware ADS-B (KLGA)
01:58PM 41.5034 -73.9981 237° Southwest 259 298 6,700  Descending FlightAware ADS-B (KLGA)
01:58PM 41.4906 -74.0214 229° Southwest 264 304 6,800 120 Climbing FlightAware ADS-B (KLGA)
01:58PM 41.4763 -74.0408 223° Southwest 266 306 6,800 -180 Level FlightAware ADS-B (KLGA)
01:59PM 41.4571 -74.0641 223° Southwest 267 307 6,700 -180 Descending FlightAware ADS-B (KLGA)
01:59PM 41.4394 -74.0852 223° Southwest 265 305 6,700  Level FlightAware ADS-B (KLGA)
01:59PM 41.4205 -74.1079 223° Southwest 264 304 6,700  Level FlightAware ADS-B (KLGA)
02:00PM 41.3932 -74.1407 223° Southwest 264 304 6,700  Level FlightAware ADS-B (KLGA)
02:00PM 41.3748 -74.1627 223° Southwest 265 305 6,700  Level FlightAware ADS-B (KLGA)
02:00PM 41.3599 -74.1807 223° Southwest 265 305 6,700  Level FlightAware ADS-B (KLGA)
02:01PM 41.3398 -74.2047 223° Southwest 266 306 6,700  Level FlightAware ADS-B (KLGA)
02:01PM 41.3193 -74.2277 209° Southwest 267 307 6,700 -480 Level FlightAware ADS-B (KLGA)
02:01PM 41.2971 -74.2387 187° South 273 314 6,400 -1,080 Descending FlightAware ADS-B (KLGA)
02:02PM 41.2734 -74.2357 165° South 276 318 6,100 -1,200 Descending FlightAware ADS-B (KLGA)
02:02PM 41.2471 -74.2252 162° South 276 318 5,600 -540 Descending FlightAware ADS-B (KLGA)
02:06PM 40.9547 -74.1060 162° South 276 318 3,700 -540 Descending FlightAware ADS-B (KLGA)
02:07PM 40.9253 -74.0959 169° South 228 262 3,100 -1,200 Descending FlightAware ADS-B (KLGA)
02:07PM 40.9107 -74.0937 175° South 225 259 2,900 -720 Descending FlightAware ADS-B (KLGA)
02:07PM 40.8887 -74.0914 175° South 223 257 2,700 -180 Descending FlightAware ADS-B (KLGA)
02:08PM 40.8757 -74.0903 175° South 212 244 2,800 120 Climbing FlightAware ADS-B (KLGA)
02:08PM 40.8564 -74.0882 174° South 216 249 2,800 -300 Level FlightAware ADS-B (KLGA)
02:08PM 40.8266 -74.0848 175° South 203 234 2,600 -540 Descending FlightAware ADS-B (KLGA)
02:09PM 40.8000 -74.1000 175° South 203 234 2,300 -780 Descending New York TRACON
02:10PM 40.7500 -74.1333 207° Southwest 183 211 1,400 -900 Descending New York TRACON
02:11PM 40.7167 -74.1500 201° Southwest 138 159 500 -900 Descending New York TRACON